Time;durP1;ratioP1;P1;durP2;ratioP2;P2;SDS_P1;SDS_P2;PMS_P1;PMS_P2;Temp;Humidity;BMP_temperature;BMP_pressure;BME280_temperature;BME280_humidity;BME280_pressure;Samples;Min_cycle;Max_cycle;Signal;HPM_P1;HPM_P2
2022/08/05 00:01:12;;;;;;;3.60;3.50;;;;;;;;;;5034157;28;20460;-73
2022/08/05 00:03:38;;;;;;;2.90;2.80;;;;;;;;;;5034055;28;20414;-73
2022/08/05 00:06:04;;;;;;;3.50;3.23;;;;;;;;;;5033923;28;20408;-73
2022/08/05 00:08:30;;;;;;;5.17;2.50;;;;;;;;;;5033685;28;20456;-73
2022/08/05 00:11:00;;;;;;;2.93;2.83;;;;;;;;;;5033728;28;20402;-73
2022/08/05 00:13:26;;;;;;;5.50;2.90;;;;;;;;;;5033954;28;20424;-73
2022/08/05 00:15:52;;;;;;;5.50;2.63;;;;;;;;;;5033563;28;20422;-73
2022/08/05 00:18:17;;;;;;;3.90;2.90;;;;;;;;;;5033672;28;20511;-73
2022/08/05 00:20:43;;;;;;;3.40;2.53;;;;;;;;;;5033581;28;20397;-73
2022/08/05 00:23:09;;;;;;;2.93;2.83;;;;;;;;;;5033717;28;20783;-73
2022/08/05 00:25:35;;;;;;;2.80;2.53;;;;;;;;;;5033593;28;20404;-73
2022/08/05 00:28:01;;;;;;;3.40;3.30;;;;;;;;;;5033680;28;20516;-73
2022/08/05 00:30:27;;;;;;;4.07;2.57;;;;;;;;;;5033523;28;20893;-73
2022/08/05 00:32:53;;;;;;;3.10;2.93;;;;;;;;;;5033486;28;20557;-73
2022/08/05 00:35:19;;;;;;;2.90;2.80;;;;;;;;;;5033492;28;20407;-73
2022/08/05 00:37:45;;;;;;;3.20;2.90;;;;;;;;;;5033448;28;20438;-74
2022/08/05 00:40:11;;;;;;;3.03;2.97;;;;;;;;;;5033453;28;20400;-73
2022/08/05 00:42:38;;;;;;;3.40;3.13;;;;;;;;;;5033484;28;20520;-73
2022/08/05 00:45:05;;;;;;;3.40;3.20;;;;;;;;;;5033401;28;20437;-73
2022/08/05 00:47:31;;;;;;;3.40;3.20;;;;;;;;;;5033683;28;20508;-74
2022/08/05 00:49:57;;;;;;;3.40;3.23;;;;;;;;;;5037501;28;20455;-73
2022/08/05 00:52:23;;;;;;;3.70;2.90;;;;;;;;;;5037417;28;20817;-73
2022/08/05 00:54:49;;;;;;;3.73;3.27;;;;;;;;;;5037395;28;20489;-73
2022/08/05 00:57:15;;;;;;;2.87;2.77;;;;;;;;;;5037645;28;20425;-73
2022/08/05 00:59:41;;;;;;;3.20;3.10;;;;;;;;;;5037320;28;20448;-73
2022/08/05 01:02:07;;;;;;;3.10;2.90;;;;;;;;;;5037245;28;20417;-73
2022/08/05 01:04:33;;;;;;;5.43;3.30;;;;;;;;;;5037193;28;20438;-75
2022/08/05 01:06:59;;;;;;;3.30;3.00;;;;;;;;;;5037035;28;20734;-75
2022/08/05 01:09:25;;;;;;;2.80;2.70;;;;;;;;;;5037159;28;20416;-75
2022/08/05 01:11:53;;;;;;;3.67;3.10;;;;;;;;;;5037307;28;20424;-75
2022/08/05 01:14:31;;;;;;;6.50;3.30;;;;;;;;;;5037060;28;20429;-74
2022/08/05 01:17:01;;;;;;;2.20;2.20;;;;;;;;;;5036967;28;20410;-75
2022/08/05 01:19:33;;;;;;;6.50;2.83;;;;;;;;;;5036930;28;20413;-76
2022/08/05 01:22:05;;;;;;;3.57;3.00;;;;;;;;;;5036952;28;20409;-75
2022/08/05 01:24:31;;;;;;;4.23;3.17;;;;;;;;;;5036954;28;20445;-75
2022/08/05 01:27:13;;;;;;;4.20;3.30;;;;;;;;;;5036795;28;20875;-77
2022/08/05 01:29:41;;;;;;;3.13;2.87;;;;;;;;;;5036870;28;20416;-78
2022/08/05 01:32:09;;;;;;;3.10;2.90;;;;;;;;;;5036698;28;20451;-76
2022/08/05 01:34:41;;;;;;;3.50;3.30;;;;;;;;;;5036694;28;20765;-75
2022/08/05 01:37:11;;;;;;;3.03;2.93;;;;;;;;;;5036543;28;20485;-76
2022/08/05 01:39:38;;;;;;;4.73;3.53;;;;;;;;;;5036614;28;20430;-75
2022/08/05 01:42:09;;;;;;;2.63;2.53;;;;;;;;;;5036286;28;20453;-75
2022/08/05 01:44:36;;;;;;;4.57;3.10;;;;;;;;;;5036486;28;20412;-76
2022/08/05 01:47:03;;;;;;;3.40;3.20;;;;;;;;;;5036355;28;20426;-75
2022/08/05 01:49:29;;;;;;;4.20;3.80;;;;;;;;;;5036426;28;20417;-80
2022/08/05 01:51:59;;;;;;;3.20;3.10;;;;;;;;;;5036334;28;20395;-77
2022/08/05 01:54:27;;;;;;;5.33;3.40;;;;;;;;;;5036541;28;20424;-77
2022/08/05 01:56:55;;;;;;;5.57;3.37;;;;;;;;;;5036152;28;20438;-78
2022/08/05 01:59:23;;;;;;;2.80;2.70;;;;;;;;;;5035081;28;20425;-77
2022/08/05 02:01:51;;;;;;;3.70;3.40;;;;;;;;;;5036197;28;20421;-79
2022/08/05 02:04:18;;;;;;;2.87;2.67;;;;;;;;;;5036208;28;20407;-76
2022/08/05 02:06:44;;;;;;;8.73;3.37;;;;;;;;;;5036031;28;20813;-76
2022/08/05 02:09:10;;;;;;;2.87;2.77;;;;;;;;;;5036070;28;20470;-76
2022/08/05 02:11:48;;;;;;;3.73;3.53;;;;;;;;;;5035956;28;20490;-78
2022/08/05 02:14:16;;;;;;;3.40;3.30;;;;;;;;;;5035928;28;20402;-77
2022/08/05 02:16:48;;;;;;;3.40;3.20;;;;;;;;;;5035815;28;20437;-78
2022/08/05 02:19:17;;;;;;;3.53;3.33;;;;;;;;;;5035944;28;20421;-79
2022/08/05 02:21:47;;;;;;;3.73;3.43;;;;;;;;;;5035779;28;20402;-76
2022/08/05 02:24:17;;;;;;;4.03;3.20;;;;;;;;;;5035799;28;20416;-76
2022/08/05 02:26:47;;;;;;;2.93;2.83;;;;;;;;;;5035720;28;20421;-75
2022/08/05 02:29:15;;;;;;;3.20;3.00;;;;;;;;;;5035572;28;20500;-75
2022/08/05 02:31:44;;;;;;;3.30;3.20;;;;;;;;;;5017858;28;20476;-75
2022/08/05 02:34:13;;;;;;;3.57;3.37;;;;;;;;;;5035607;28;20441;-75
2022/08/05 02:36:41;;;;;;;3.93;3.33;;;;;;;;;;5035684;28;20394;-76
2022/08/05 02:39:09;;;;;;;3.23;2.90;;;;;;;;;;5035485;28;20412;-79
2022/08/05 02:41:35;;;;;;;3.70;3.00;;;;;;;;;;5035213;28;20410;-76
2022/08/05 02:44:01;;;;;;;3.10;3.00;;;;;;;;;;5035424;28;20418;-79
2022/08/05 02:46:28;;;;;;;3.33;3.23;;;;;;;;;;5035342;28;20406;-80
2022/08/05 02:48:54;;;;;;;3.40;3.30;;;;;;;;;;5035253;28;20575;-76
2022/08/05 02:51:21;;;;;;;4.70;3.30;;;;;;;;;;5035164;28;20478;-78
2022/08/05 02:53:47;;;;;;;3.50;3.40;;;;;;;;;;5035220;28;20494;-75
2022/08/05 02:56:14;;;;;;;3.40;3.37;;;;;;;;;;5035260;28;20403;-79
2022/08/05 02:58:41;;;;;;;4.20;2.87;;;;;;;;;;5035025;28;20411;-77
2022/08/05 03:01:09;;;;;;;3.97;3.87;;;;;;;;;;5035057;28;20401;-75
2022/08/05 03:03:39;;;;;;;3.10;3.00;;;;;;;;;;5034981;28;20417;-77
2022/08/05 03:06:05;;;;;;;3.50;3.20;;;;;;;;;;5034973;28;20402;-75
2022/08/05 03:08:32;;;;;;;2.80;2.70;;;;;;;;;;5034852;28;20468;-79
2022/08/05 03:10:58;;;;;;;2.83;2.70;;;;;;;;;;5034668;28;20475;-77
2022/08/05 03:13:24;;;;;;;9.57;3.30;;;;;;;;;;5034790;28;20410;-76
2022/08/05 03:15:50;;;;;;;5.87;3.23;;;;;;;;;;5017125;28;20423;-75
2022/08/05 03:18:16;;;;;;;3.30;3.10;;;;;;;;;;5034684;28;20428;-75
2022/08/05 03:20:42;;;;;;;4.80;3.40;;;;;;;;;;5034621;28;20413;-75
2022/08/05 03:23:10;;;;;;;3.90;3.60;;;;;;;;;;5034892;28;20462;-75
2022/08/05 03:25:37;;;;;;;2.63;2.63;;;;;;;;;;5034600;28;20446;-75
2022/08/05 03:28:04;;;;;;;3.60;3.40;;;;;;;;;;5034363;28;20466;-75
2022/08/05 03:30:31;;;;;;;3.57;3.30;;;;;;;;;;5034737;28;20469;-77
2022/08/05 03:32:58;;;;;;;3.87;3.53;;;;;;;;;;5034636;28;20438;-78
2022/08/05 03:35:25;;;;;;;4.80;3.30;;;;;;;;;;5034448;28;20407;-80
2022/08/05 03:37:51;;;;;;;3.67;3.40;;;;;;;;;;5034384;28;20388;-77
2022/08/05 03:40:17;;;;;;;3.07;2.90;;;;;;;;;;5034545;28;20403;-78
2022/08/05 03:42:43;;;;;;;3.50;3.40;;;;;;;;;;5034171;28;20462;-76
2022/08/05 03:45:09;;;;;;;3.60;3.30;;;;;;;;;;5034219;28;20782;-76
2022/08/05 03:47:35;;;;;;;3.40;3.20;;;;;;;;;;5016413;28;20471;-77
2022/08/05 03:50:01;;;;;;;3.60;3.40;;;;;;;;;;5034088;28;20454;-77
2022/08/05 03:52:32;;;;;;;3.50;3.07;;;;;;;;;;5034018;28;20412;-78
2022/08/05 03:55:01;;;;;;;3.80;3.53;;;;;;;;;;5033924;28;20447;-77
2022/08/05 03:57:32;;;;;;;15.87;14.17;;;;;;;;;;5033937;28;20502;-77
2022/08/05 04:00:01;;;;;;;14.83;10.23;;;;;;;;;;5033910;28;20435;-78
2022/08/05 04:02:29;;;;;;;5.40;4.23;;;;;;;;;;5033869;28;20412;-80
2022/08/05 04:04:55;;;;;;;8.20;4.10;;;;;;;;;;5033856;28;20464;-76
2022/08/05 04:07:22;;;;;;;3.70;3.57;;;;;;;;;;5033789;28;20470;-75
2022/08/05 04:09:48;;;;;;;9.53;4.10;;;;;;;;;;5033835;28;20417;-74
2022/08/05 04:12:14;;;;;;;3.70;3.43;;;;;;;;;;5033787;28;20408;-75
2022/08/05 04:14:40;;;;;;;8.90;3.90;;;;;;;;;;5033626;28;20429;-75
2022/08/05 04:17:07;;;;;;;4.13;3.83;;;;;;;;;;5033817;28;20403;-75
2022/08/05 04:19:40;;;;;;;3.90;3.70;;;;;;;;;;5033659;28;20961;-74
2022/08/05 04:22:06;;;;;;;4.70;3.70;;;;;;;;;;5033265;28;20865;-74
2022/08/05 04:24:32;;;;;;;4.83;3.57;;;;;;;;;;5033391;28;20486;-78
2022/08/05 04:26:58;;;;;;;6.40;3.73;;;;;;;;;;5033412;28;20870;-79
2022/08/05 04:29:24;;;;;;;3.77;3.60;;;;;;;;;;5033535;28;20550;-77
2022/08/05 04:31:50;;;;;;;3.60;3.50;;;;;;;;;;5033531;28;20396;-76
2022/08/05 04:34:16;;;;;;;5.87;4.03;;;;;;;;;;5033406;28;20494;-76
2022/08/05 04:36:42;;;;;;;4.13;3.67;;;;;;;;;;5033402;28;20863;-76
2022/08/05 04:39:08;;;;;;;3.33;3.13;;;;;;;;;;5033323;28;20494;-75
2022/08/05 04:41:34;;;;;;;4.17;3.77;;;;;;;;;;5033358;28;20409;-75
2022/08/05 04:44:00;;;;;;;4.20;3.70;;;;;;;;;;5033397;28;20406;-77
2022/08/05 04:46:26;;;;;;;3.40;3.30;;;;;;;;;;5033411;28;20499;-75
2022/08/05 04:48:52;;;;;;;3.27;2.97;;;;;;;;;;5015583;28;20569;-75
2022/08/05 04:51:18;;;;;;;3.60;3.43;;;;;;;;;;5033321;28;20398;-76
2022/08/05 04:53:44;;;;;;;3.40;3.10;;;;;;;;;;5033333;28;20411;-78
2022/08/05 04:56:10;;;;;;;3.23;3.03;;;;;;;;;;5033617;28;20397;-76
2022/08/05 04:58:36;;;;;;;3.83;3.60;;;;;;;;;;5033243;28;20735;-78
2022/08/05 05:01:02;;;;;;;4.00;3.70;;;;;;;;;;5033285;28;20447;-77
2022/08/05 05:03:28;;;;;;;5.87;3.10;;;;;;;;;;5033261;28;20905;-76
2022/08/05 05:05:54;;;;;;;3.73;3.60;;;;;;;;;;5033197;28;20399;-75
2022/08/05 05:08:20;;;;;;;6.20;2.90;;;;;;;;;;5033086;28;20472;-76
2022/08/05 05:10:46;;;;;;;3.40;3.13;;;;;;;;;;5033244;28;20403;-75
2022/08/05 05:13:14;;;;;;;12.20;3.37;;;;;;;;;;5033185;28;20453;-77
2022/08/05 05:15:40;;;;;;;3.27;3.17;;;;;;;;;;5033087;28;20400;-76
2022/08/05 05:18:06;;;;;;;3.37;3.10;;;;;;;;;;5033073;28;20408;-75
2022/08/05 05:20:33;;;;;;;4.30;3.97;;;;;;;;;;5033133;28;20398;-77
2022/08/05 05:22:59;;;;;;;6.17;3.50;;;;;;;;;;5033114;28;20880;-75
2022/08/05 05:25:25;;;;;;;4.53;2.90;;;;;;;;;;5015353;28;20420;-79
2022/08/05 05:27:52;;;;;;;6.77;3.40;;;;;;;;;;5033140;28;20466;-75
2022/08/05 05:30:18;;;;;;;3.53;3.10;;;;;;;;;;5033110;28;20907;-76
2022/08/05 05:32:44;;;;;;;3.50;3.20;;;;;;;;;;5033081;28;20405;-77
2022/08/05 05:35:10;;;;;;;3.87;2.80;;;;;;;;;;5035872;28;20413;-76
2022/08/05 05:37:49;;;;;;;3.10;2.90;;;;;;;;;;5036597;28;20395;-79
2022/08/05 05:40:16;;;;;;;4.47;2.83;;;;;;;;;;5036588;28;20407;-81
2022/08/05 05:42:42;;;;;;;3.60;3.30;;;;;;;;;;5036265;28;20818;-80
2022/08/05 05:45:08;;;;;;;5.17;3.37;;;;;;;;;;5036415;28;20421;-79
2022/08/05 05:47:36;;;;;;;3.33;2.70;;;;;;;;;;5036586;28;20577;-78
2022/08/05 05:50:02;;;;;;;4.80;3.20;;;;;;;;;;5036377;28;20407;-75
2022/08/05 05:52:28;;;;;;;2.87;2.70;;;;;;;;;;5036291;28;20446;-73
2022/08/05 05:54:54;;;;;;;3.53;2.83;;;;;;;;;;5036233;28;20435;-72
2022/08/05 05:57:20;;;;;;;6.03;2.63;;;;;;;;;;5036220;28;20501;-71
2022/08/05 05:59:46;;;;;;;3.23;2.93;;;;;;;;;;5036232;28;20408;-69
2022/08/05 06:02:12;;;;;;;2.90;2.70;;;;;;;;;;5036165;28;20401;-70
2022/08/05 06:04:38;;;;;;;3.30;3.10;;;;;;;;;;5036131;28;20491;-73
2022/08/05 06:07:04;;;;;;;8.10;2.97;;;;;;;;;;5035997;28;20436;-69
2022/08/05 06:09:30;;;;;;;4.70;2.73;;;;;;;;;;5035996;28;20464;-69
2022/08/05 06:11:56;;;;;;;3.43;2.73;;;;;;;;;;5035935;28;20404;-68
2022/08/05 06:14:22;;;;;;;16.53;2.70;;;;;;;;;;5035925;28;20427;-68
2022/08/05 06:16:48;;;;;;;3.90;2.57;;;;;;;;;;5035941;28;20403;-72
2022/08/05 06:19:14;;;;;;;7.73;2.83;;;;;;;;;;5036054;28;20398;-68
2022/08/05 06:21:40;;;;;;;7.00;2.60;;;;;;;;;;5035770;28;20910;-71
2022/08/05 06:24:07;;;;;;;4.20;2.77;;;;;;;;;;5035999;28;20473;-71
2022/08/05 06:26:33;;;;;;;2.73;2.53;;;;;;;;;;5035750;28;20443;-68
2022/08/05 06:28:59;;;;;;;4.17;2.27;;;;;;;;;;5035450;28;20543;-71
2022/08/05 06:31:25;;;;;;;4.50;2.73;;;;;;;;;;5035540;28;20537;-74
2022/08/05 06:33:51;;;;;;;2.60;2.23;;;;;;;;;;5035592;28;20457;-70
2022/08/05 06:36:17;;;;;;;2.30;2.17;;;;;;;;;;5035553;28;20406;-72
2022/08/05 06:38:43;;;;;;;2.37;2.13;;;;;;;;;;5035485;28;20439;-69
2022/08/05 06:41:09;;;;;;;2.43;2.43;;;;;;;;;;5035457;28;20489;-72
2022/08/05 06:43:35;;;;;;;2.40;1.90;;;;;;;;;;5035289;28;20542;-72
2022/08/05 06:46:01;;;;;;;2.70;2.50;;;;;;;;;;5035003;28;20415;-69
2022/08/05 06:48:28;;;;;;;10.50;2.77;;;;;;;;;;5035159;28;20969;-71
2022/08/05 06:50:54;;;;;;;5.27;2.43;;;;;;;;;;5035275;28;20390;-75
2022/08/05 06:53:20;;;;;;;3.43;2.30;;;;;;;;;;5035248;28;20416;-72
2022/08/05 06:55:46;;;;;;;3.40;3.20;;;;;;;;;;5035158;28;20446;-69
2022/08/05 06:58:12;;;;;;;2.97;2.20;;;;;;;;;;5035116;28;20464;-70
2022/08/05 07:00:37;;;;;;;2.87;2.60;;;;;;;;;;5035019;28;20401;-69
2022/08/05 07:03:03;;;;;;;4.63;2.60;;;;;;;;;;5035047;28;20501;-75
2022/08/05 07:05:29;;;;;;;4.07;2.80;;;;;;;;;;5034990;28;20406;-79
2022/08/05 07:07:55;;;;;;;2.50;2.40;;;;;;;;;;5034820;28;20535;-79
2022/08/05 07:10:22;;;;;;;3.10;2.50;;;;;;;;;;5017136;28;20411;-84
2022/08/05 07:18:17;;;;;;;6.00;2.80;;;;;;;;;;5034627;28;20778;-72
2022/08/05 07:20:43;;;;;;;3.07;2.87;;;;;;;;;;5034475;28;20407;-74
2022/08/05 07:23:08;;;;;;;2.83;1.97;;;;;;;;;;5034654;28;20409;-69
2022/08/05 07:25:34;;;;;;;3.20;2.90;;;;;;;;;;5034699;28;20910;-79
2022/08/05 07:28:01;;;;;;;3.00;2.70;;;;;;;;;;5034417;28;20463;-78
2022/08/05 07:30:27;;;;;;;4.20;2.70;;;;;;;;;;5034507;28;20882;-74
2022/08/05 07:32:53;;;;;;;2.67;2.40;;;;;;;;;;5034412;28;20405;-76
2022/08/05 07:35:19;;;;;;;9.53;2.53;;;;;;;;;;5034433;28;20414;-69
2022/08/05 07:37:45;;;;;;;2.83;1.90;;;;;;;;;;5034259;28;20450;-82
2022/08/05 07:40:11;;;;;;;2.60;2.40;;;;;;;;;;5034343;28;20845;-76
2022/08/05 07:42:37;;;;;;;5.90;2.80;;;;;;;;;;5034182;28;20472;-68
2022/08/05 07:45:03;;;;;;;6.63;2.27;;;;;;;;;;5034280;28;20411;-76
2022/08/05 07:47:29;;;;;;;2.10;2.00;;;;;;;;;;5034079;28;20524;-75
2022/08/05 07:49:54;;;;;;;1.83;1.83;;;;;;;;;;5034137;28;20411;-75
2022/08/05 07:52:21;;;;;;;2.00;2.00;;;;;;;;;;5034090;28;20503;-74
2022/08/05 07:54:47;;;;;;;2.33;2.23;;;;;;;;;;5034086;28;20410;-72
2022/08/05 07:57:13;;;;;;;2.60;1.93;;;;;;;;;;5033225;28;20416;-75
2022/08/05 07:59:39;;;;;;;1.97;1.97;;;;;;;;;;5033927;28;20462;-74
2022/08/05 08:02:06;;;;;;;2.33;2.07;;;;;;;;;;5033967;28;20404;-71
2022/08/05 08:04:32;;;;;;;3.10;1.83;;;;;;;;;;5033868;28;20391;-71
2022/08/05 08:06:59;;;;;;;1.93;1.83;;;;;;;;;;5033838;28;20432;-69
2022/08/05 08:09:25;;;;;;;2.70;2.43;;;;;;;;;;5033727;28;20912;-77
2022/08/05 08:11:51;;;;;;;1.90;1.53;;;;;;;;;;5033774;28;20392;-70
2022/08/05 08:14:18;;;;;;;2.00;1.90;;;;;;;;;;5033786;28;20415;-72
2022/08/05 08:16:44;;;;;;;1.77;1.67;;;;;;;;;;5033753;28;20432;-70
2022/08/05 08:19:10;;;;;;;1.90;1.90;;;;;;;;;;5033752;28;20412;-72
2022/08/05 08:21:36;;;;;;;2.43;2.03;;;;;;;;;;5016028;28;20451;-72
2022/08/05 08:24:02;;;;;;;1.90;1.80;;;;;;;;;;5033723;28;20966;-72
2022/08/05 08:26:28;;;;;;;3.03;2.20;;;;;;;;;;5033583;28;20415;-73
2022/08/05 08:28:54;;;;;;;5.80;2.37;;;;;;;;;;5033453;28;20463;-69
2022/08/05 08:31:20;;;;;;;2.03;1.93;;;;;;;;;;5033600;28;20403;-72
2022/08/05 08:33:46;;;;;;;2.90;2.20;;;;;;;;;;5033536;28;20396;-72
2022/08/05 08:36:12;;;;;;;2.83;2.63;;;;;;;;;;5033511;28;20392;-72
2022/08/05 08:38:38;;;;;;;2.07;2.07;;;;;;;;;;5033487;28;20458;-73
2022/08/05 08:41:09;;;;;;;1.83;1.80;;;;;;;;;;5033443;28;20399;-71
2022/08/05 08:43:36;;;;;;;2.27;2.20;;;;;;;;;;5033334;28;20973;-72
2022/08/05 08:46:03;;;;;;;2.10;1.90;;;;;;;;;;5033400;28;20388;-71
2022/08/05 08:48:30;;;;;;;1.97;1.90;;;;;;;;;;5033336;28;20873;-72
2022/08/05 08:50:56;;;;;;;2.00;1.90;;;;;;;;;;5033393;28;20487;-73
2022/08/05 08:53:24;;;;;;;2.50;2.30;;;;;;;;;;5033306;28;20407;-72
2022/08/05 08:55:50;;;;;;;2.60;1.70;;;;;;;;;;5033329;28;20427;-69
2022/08/05 08:58:16;;;;;;;2.60;1.90;;;;;;;;;;5015573;28;20432;-69
2022/08/05 09:00:42;;;;;;;1.67;1.63;;;;;;;;;;5033185;28;20504;-75
2022/08/05 09:03:10;;;;;;;3.47;2.20;;;;;;;;;;5033286;28;20859;-74
2022/08/05 09:05:36;;;;;;;1.83;1.73;;;;;;;;;;5033243;28;20462;-74
2022/08/05 09:08:02;;;;;;;2.00;1.50;;;;;;;;;;5033151;28;20542;-73
2022/08/05 09:10:28;;;;;;;5.77;1.90;;;;;;;;;;5036797;28;20905;-74
2022/08/05 09:12:55;;;;;;;2.70;1.60;;;;;;;;;;5037142;28;20734;-73
2022/08/05 09:15:21;;;;;;;2.00;1.47;;;;;;;;;;5037352;28;20412;-74
2022/08/05 09:17:47;;;;;;;1.50;1.40;;;;;;;;;;5037032;28;20400;-72
2022/08/05 09:20:13;;;;;;;2.20;2.00;;;;;;;;;;5036967;28;20535;-73
2022/08/05 09:22:58;;;;;;;1.77;1.57;;;;;;;;;;5036843;28;20907;-73
2022/08/05 09:25:24;;;;;;;1.80;1.70;;;;;;;;;;5037097;28;20396;-73
2022/08/05 09:27:50;;;;;;;2.13;1.90;;;;;;;;;;5036868;28;20554;-72
2022/08/05 09:30:16;;;;;;;1.90;1.80;;;;;;;;;;5036882;28;20407;-73
2022/08/05 09:32:42;;;;;;;2.03;1.93;;;;;;;;;;5036794;28;20403;-73
2022/08/05 09:35:13;;;;;;;1.90;1.80;;;;;;;;;;5036683;28;20979;-72
2022/08/05 09:37:48;;;;;;;1.63;1.63;;;;;;;;;;5036712;28;20458;-72
2022/08/05 09:40:28;;;;;;;1.93;1.70;;;;;;;;;;5036604;28;20404;-73
2022/08/05 09:42:54;;;;;;;1.60;1.50;;;;;;;;;;5036387;28;20965;-73
2022/08/05 09:45:20;;;;;;;1.53;1.53;;;;;;;;;;5036583;28;20403;-72
2022/08/05 09:47:46;;;;;;;2.03;1.80;;;;;;;;;;5036400;28;20875;-71
2022/08/05 09:50:12;;;;;;;1.27;1.27;;;;;;;;;;5036590;28;20416;-72
2022/08/05 09:52:38;;;;;;;1.50;1.40;;;;;;;;;;5036645;28;20182;-72
2022/08/05 09:55:11;;;;;;;1.50;1.50;;;;;;;;;;5036434;28;20802;-72
2022/08/05 09:57:39;;;;;;;1.90;1.27;;;;;;;;;;5036232;28;20408;-72
2022/08/05 10:00:18;;;;;;;1.83;1.57;;;;;;;;;;5036306;28;20470;-72
2022/08/05 10:02:45;;;;;;;1.60;1.60;;;;;;;;;;5036165;28;20393;-73
2022/08/05 10:05:13;;;;;;;1.50;1.40;;;;;;;;;;5036228;28;20492;-71
2022/08/05 10:08:09;;;;;;;1.83;1.47;;;;;;;;;;5035963;28;20974;-71
2022/08/05 10:10:38;;;;;;;1.73;1.73;;;;;;;;;;5019197;28;20440;-71
2022/08/05 10:13:05;;;;;;;3.13;1.70;;;;;;;;;;5035926;28;20403;-72
2022/08/05 10:15:36;;;;;;;1.87;1.87;;;;;;;;;;5018314;28;20412;-71
2022/08/05 10:18:05;;;;;;;1.47;1.37;;;;;;;;;;5035939;28;20438;-71
2022/08/05 10:20:31;;;;;;;2.90;1.60;;;;;;;;;;5034856;28;20867;-72
2022/08/05 10:22:57;;;;;;;1.80;1.80;;;;;;;;;;5035812;28;20400;-72
2022/08/05 10:25:23;;;;;;;2.97;1.90;;;;;;;;;;5018106;28;20911;-72
2022/08/05 10:27:51;;;;;;;1.60;1.60;;;;;;;;;;5035651;28;20459;-73
2022/08/05 10:30:17;;;;;;;1.50;1.50;;;;;;;;;;5035601;28;20646;-72
2022/08/05 10:32:43;;;;;;;1.63;1.53;;;;;;;;;;5035666;28;20763;-72
2022/08/05 10:35:10;;;;;;;1.90;1.90;;;;;;;;;;5035682;28;20405;-72
2022/08/05 10:37:36;;;;;;;1.47;1.47;;;;;;;;;;5035522;28;20423;-72
2022/08/05 10:40:04;;;;;;;1.47;1.47;;;;;;;;;;5035163;28;20404;-72
2022/08/05 10:42:37;;;;;;;2.40;1.73;;;;;;;;;;5034963;28;20459;-71
2022/08/05 10:45:04;;;;;;;2.00;1.70;;;;;;;;;;5035140;28;20401;-72
2022/08/05 10:47:33;;;;;;;1.70;1.60;;;;;;;;;;5034967;28;20989;-70
2022/08/05 10:50:01;;;;;;;1.50;1.40;;;;;;;;;;5035172;28;20888;-72
2022/08/05 10:52:40;;;;;;;1.67;1.63;;;;;;;;;;5035052;28;20393;-71
2022/08/05 10:55:08;;;;;;;2.00;1.90;;;;;;;;;;5035108;28;20458;-71
2022/08/05 10:57:36;;;;;;;1.30;1.30;;;;;;;;;;5034960;28;20399;-71
2022/08/05 11:00:09;;;;;;;3.07;1.83;;;;;;;;;;5035271;28;20422;-72
2022/08/05 11:02:35;;;;;;;2.20;2.10;;;;;;;;;;5035188;28;20733;-71
2022/08/05 11:05:03;;;;;;;2.27;1.73;;;;;;;;;;5034808;28;20407;-72
2022/08/05 11:07:30;;;;;;;1.93;1.80;;;;;;;;;;5034425;28;20401;-72
2022/08/05 11:09:56;;;;;;;1.80;1.70;;;;;;;;;;5034820;28;20442;-73
2022/08/05 11:12:40;;;;;;;3.63;1.73;;;;;;;;;;5034954;28;20405;-72
2022/08/05 11:15:15;;;;;;;2.30;1.70;;;;;;;;;;5034648;28;20396;-72
2022/08/05 11:18:04;;;;;;;2.00;1.90;;;;;;;;;;5034801;28;20399;-71
2022/08/05 11:20:36;;;;;;;2.13;2.03;;;;;;;;;;5034254;28;20420;-71
2022/08/05 11:23:21;;;;;;;2.30;1.73;;;;;;;;;;5034509;28;20782;-72
2022/08/05 11:25:59;;;;;;;2.10;1.70;;;;;;;;;;5034622;28;20436;-71
2022/08/05 11:28:25;;;;;;;2.87;1.83;;;;;;;;;;5034302;28;20460;-71
2022/08/05 11:31:00;;;;;;;2.03;1.90;;;;;;;;;;5034366;28;20411;-70
2022/08/05 11:33:26;;;;;;;1.73;1.63;;;;;;;;;;5034223;28;20891;-70
2022/08/05 11:35:56;;;;;;;1.87;1.87;;;;;;;;;;5034157;28;20397;-71
2022/08/05 11:38:41;;;;;;;1.63;1.63;;;;;;;;;;5034357;28;20408;-72
2022/08/05 11:41:07;;;;;;;1.73;1.63;;;;;;;;;;5034382;28;20401;-72
2022/08/05 11:43:33;;;;;;;2.10;1.90;;;;;;;;;;5034037;28;20982;-72
2022/08/05 11:46:00;;;;;;;2.07;2.07;;;;;;;;;;5034315;28;20396;-73
2022/08/05 11:48:27;;;;;;;2.10;2.00;;;;;;;;;;5034144;28;20609;-72
2022/08/05 11:50:53;;;;;;;2.40;1.83;;;;;;;;;;5034202;28;20389;-72
2022/08/05 11:53:20;;;;;;;4.53;2.00;;;;;;;;;;5034064;28;20947;-73
2022/08/05 11:55:56;;;;;;;2.20;2.00;;;;;;;;;;5034080;28;20492;-73
2022/08/05 11:58:29;;;;;;;2.00;1.90;;;;;;;;;;5033911;28;20408;-71
2022/08/05 12:01:05;;;;;;;2.00;1.87;;;;;;;;;;5033960;28;20396;-72
2022/08/05 12:03:51;;;;;;;2.00;2.00;;;;;;;;;;5033875;28;20883;-73
2022/08/05 12:06:19;;;;;;;4.73;1.80;;;;;;;;;;5033885;28;20439;-73
2022/08/05 12:08:46;;;;;;;2.87;2.00;;;;;;;;;;5033843;28;20520;-72
2022/08/05 12:11:17;;;;;;;2.10;2.00;;;;;;;;;;5033686;28;20445;-72
2022/08/05 12:13:52;;;;;;;2.13;2.03;;;;;;;;;;5033823;28;20474;-74
2022/08/05 12:16:19;;;;;;;2.30;2.17;;;;;;;;;;5033613;28;20435;-71
2022/08/05 12:18:45;;;;;;;1.90;1.90;;;;;;;;;;5033468;28;20579;-73
2022/08/05 12:21:16;;;;;;;1.90;1.80;;;;;;;;;;5033581;28;20393;-72
2022/08/05 12:23:57;;;;;;;2.07;2.00;;;;;;;;;;5033496;28;20396;-73
2022/08/05 12:26:23;;;;;;;1.97;1.87;;;;;;;;;;5033554;28;20472;-73
2022/08/05 12:28:49;;;;;;;3.37;2.03;;;;;;;;;;5033366;28;20905;-73
2022/08/05 12:31:15;;;;;;;2.30;1.90;;;;;;;;;;5033501;28;20400;-73
2022/08/05 12:33:42;;;;;;;2.00;1.90;;;;;;;;;;5033076;28;20173;-73
2022/08/05 12:36:08;;;;;;;2.30;1.70;;;;;;;;;;5035354;28;20479;-73
2022/08/05 12:38:35;;;;;;;2.50;1.90;;;;;;;;;;5035214;28;20400;-73
2022/08/05 12:41:01;;;;;;;1.80;1.70;;;;;;;;;;5034212;28;20471;-73
2022/08/05 12:43:27;;;;;;;1.90;1.90;;;;;;;;;;5033211;28;20507;-73
2022/08/05 12:45:55;;;;;;;2.10;1.80;;;;;;;;;;5033745;28;20483;-72
2022/08/05 12:48:22;;;;;;;3.13;1.97;;;;;;;;;;5033517;28;20459;-72
2022/08/05 12:51:06;;;;;;;4.13;2.10;;;;;;;;;;5033884;28;20855;-73
2022/08/05 12:53:32;;;;;;;2.87;1.67;;;;;;;;;;5033642;28;20879;-70
2022/08/05 12:55:58;;;;;;;2.20;1.93;;;;;;;;;;5033414;28;20469;-70
2022/08/05 12:58:24;;;;;;;2.43;2.07;;;;;;;;;;5033241;28;20766;-71
2022/08/05 13:00:50;;;;;;;1.80;1.80;;;;;;;;;;5033745;28;20526;-72
2022/08/05 13:03:16;;;;;;;2.27;1.70;;;;;;;;;;5033480;28;20393;-72
2022/08/05 13:05:45;;;;;;;5.50;1.90;;;;;;;;;;5033503;28;20395;-71
2022/08/05 13:08:11;;;;;;;3.03;1.83;;;;;;;;;;5033627;28;20463;-71
2022/08/05 13:10:42;;;;;;;4.77;1.93;;;;;;;;;;5035716;28;20400;-71
2022/08/05 13:13:09;;;;;;;1.93;1.83;;;;;;;;;;5033201;28;20433;-72
2022/08/05 13:15:35;;;;;;;2.00;2.00;;;;;;;;;;5033238;28;20808;-71
2022/08/05 13:18:01;;;;;;;1.90;1.80;;;;;;;;;;5033237;28;20411;-72
2022/08/05 13:20:34;;;;;;;1.63;1.63;;;;;;;;;;5033159;28;20248;-73
2022/08/05 13:23:00;;;;;;;1.70;1.70;;;;;;;;;;5033454;28;20177;-72
2022/08/05 13:25:26;;;;;;;1.70;1.70;;;;;;;;;;5015431;28;20439;-72
2022/08/05 13:27:53;;;;;;;2.13;2.03;;;;;;;;;;5033154;28;20550;-73
2022/08/05 13:30:21;;;;;;;3.23;1.73;;;;;;;;;;5033181;28;20491;-73
2022/08/05 13:32:48;;;;;;;2.10;2.00;;;;;;;;;;5033044;28;20446;-72
2022/08/05 13:35:14;;;;;;;6.60;2.10;;;;;;;;;;5033326;28;20435;-72
2022/08/05 13:37:40;;;;;;;1.87;1.77;;;;;;;;;;5032943;28;20780;-72
2022/08/05 13:40:07;;;;;;;2.00;1.90;;;;;;;;;;5033266;28;20773;-72
2022/08/05 13:42:33;;;;;;;4.47;2.20;;;;;;;;;;5032855;28;21021;-72
2022/08/05 13:44:59;;;;;;;2.23;2.10;;;;;;;;;;5033070;28;20539;-72
2022/08/05 13:47:25;;;;;;;1.90;1.80;;;;;;;;;;5032793;28;20404;-71
2022/08/05 13:49:52;;;;;;;2.33;2.07;;;;;;;;;;5032774;28;20408;-72
2022/08/05 13:52:22;;;;;;;2.17;1.93;;;;;;;;;;5033114;28;20401;-72
2022/08/05 13:54:48;;;;;;;12.37;1.80;;;;;;;;;;5032849;28;20404;-72
2022/08/05 13:57:14;;;;;;;1.90;1.80;;;;;;;;;;5035646;28;20442;-71
2022/08/05 13:59:40;;;;;;;1.80;1.63;;;;;;;;;;5036232;28;20444;-73
2022/08/05 14:02:07;;;;;;;3.80;2.00;;;;;;;;;;5036221;28;20177;-73
2022/08/05 14:05:19;;;;;;;2.00;2.00;;;;;;;;;;5036110;28;20397;-72
2022/08/05 14:07:24;;;;;;;5.00;2.17;;;;;;;;;;5022061;28;20906;-71
2022/08/05 14:09:50;;;;;;;2.03;1.83;;;;;;;;;;5036091;28;20610;-70
2022/08/05 14:12:16;;;;;;;6.67;6.03;;;;;;;;;;5035971;28;20405;-70
2022/08/05 14:14:42;;;;;;;2.10;2.00;;;;;;;;;;5035969;28;20901;-69
2022/08/05 14:17:08;;;;;;;2.00;1.90;;;;;;;;;;5035986;28;20184;-71
2022/08/05 14:19:34;;;;;;;2.00;1.90;;;;;;;;;;5035846;28;20400;-68
2022/08/05 14:22:00;;;;;;;2.00;1.90;;;;;;;;;;5035859;28;20621;-68
2022/08/05 14:24:26;;;;;;;6.17;1.97;;;;;;;;;;5035990;28;20428;-68
2022/08/05 14:26:52;;;;;;;2.00;1.90;;;;;;;;;;5035695;28;20471;-69
2022/08/05 14:29:18;;;;;;;4.83;2.00;;;;;;;;;;5035610;28;20551;-69
2022/08/05 14:31:44;;;;;;;7.63;2.37;;;;;;;;;;5035666;28;20424;-70
2022/08/05 14:34:10;;;;;;;4.37;2.37;;;;;;;;;;5035659;28;20161;-69
2022/08/05 14:36:36;;;;;;;2.50;2.10;;;;;;;;;;5035602;28;20454;-69
2022/08/05 14:39:04;;;;;;;6.33;2.40;;;;;;;;;;5035585;28;20400;-70
2022/08/05 14:41:30;;;;;;;3.90;2.40;;;;;;;;;;5035321;28;20989;-70
2022/08/05 14:43:56;;;;;;;3.87;2.30;;;;;;;;;;5035500;28;20400;-71
2022/08/05 14:46:23;;;;;;;2.90;2.70;;;;;;;;;;5035445;28;20751;-71
2022/08/05 14:48:49;;;;;;;6.30;2.60;;;;;;;;;;5035282;28;20934;-71
2022/08/05 14:51:15;;;;;;;2.70;2.30;;;;;;;;;;5035573;28;20404;-70